sensor_id;sensor_type;location;lat;lon;timestamp;temperature;humidity
70214;DHT22;60138;55.808;37.078;2024-02-26T00:00:17;0.64;67.26
70214;DHT22;60138;55.808;37.078;2024-02-26T00:02:43;0.63;65.59
70214;DHT22;60138;55.808;37.078;2024-02-26T00:05:08;0.63;65.42
70214;DHT22;60138;55.808;37.078;2024-02-26T00:07:34;0.63;65.84
70214;DHT22;60138;55.808;37.078;2024-02-26T00:10:00;0.63;66.16
70214;DHT22;60138;55.808;37.078;2024-02-26T00:12:25;0.62;65.58
70214;DHT22;60138;55.808;37.078;2024-02-26T00:14:51;0.63;66.07
70214;DHT22;60138;55.808;37.078;2024-02-26T00:17:17;0.60;65.96
70214;DHT22;60138;55.808;37.078;2024-02-26T00:19:42;0.63;65.99
70214;DHT22;60138;55.808;37.078;2024-02-26T00:22:08;0.62;65.88
70214;DHT22;60138;55.808;37.078;2024-02-26T00:24:34;0.63;65.69
70214;DHT22;60138;55.808;37.078;2024-02-26T00:26:59;0.63;64.59
70214;DHT22;60138;55.808;37.078;2024-02-26T00:29:25;0.63;65.62
70214;DHT22;60138;55.808;37.078;2024-02-26T00:31:51;0.62;65.53
70214;DHT22;60138;55.808;37.078;2024-02-26T00:34:16;0.64;65.35
70214;DHT22;60138;55.808;37.078;2024-02-26T00:36:42;0.64;65.58
70214;DHT22;60138;55.808;37.078;2024-02-26T00:39:08;0.63;64.75
70214;DHT22;60138;55.808;37.078;2024-02-26T00:41:38;0.61;65.04
70214;DHT22;60138;55.808;37.078;2024-02-26T00:44:04;0.58;63.40
70214;DHT22;60138;55.808;37.078;2024-02-26T00:46:29;0.58;62.97
70214;DHT22;60138;55.808;37.078;2024-02-26T00:48:55;0.58;63.91
70214;DHT22;60138;55.808;37.078;2024-02-26T00:51:20;0.62;64.04
70214;DHT22;60138;55.808;37.078;2024-02-26T00:53:46;0.62;64.37
70214;DHT22;60138;55.808;37.078;2024-02-26T00:56:12;0.61;65.05
70214;DHT22;60138;55.808;37.078;2024-02-26T00:58:37;0.60;63.61
70214;DHT22;60138;55.808;37.078;2024-02-26T01:01:03;0.59;64.26
70214;DHT22;60138;55.808;37.078;2024-02-26T01:03:29;0.60;63.31
70214;DHT22;60138;55.808;37.078;2024-02-26T01:05:55;0.57;63.83
70214;DHT22;60138;55.808;37.078;2024-02-26T01:08:20;0.57;64.14
70214;DHT22;60138;55.808;37.078;2024-02-26T01:10:46;0.54;63.69
70214;DHT22;60138;55.808;37.078;2024-02-26T01:13:12;0.50;64.19
70214;DHT22;60138;55.808;37.078;2024-02-26T01:15:37;0.49;63.71
70214;DHT22;60138;55.808;37.078;2024-02-26T01:18:03;0.49;64.06
70214;DHT22;60138;55.808;37.078;2024-02-26T01:20:28;0.49;64.11
70214;DHT22;60138;55.808;37.078;2024-02-26T01:22:54;0.48;63.29
70214;DHT22;60138;55.808;37.078;2024-02-26T01:25:20;0.51;64.07
70214;DHT22;60138;55.808;37.078;2024-02-26T01:27:45;0.48;64.27
70214;DHT22;60138;55.808;37.078;2024-02-26T01:30:11;0.45;63.73
70214;DHT22;60138;55.808;37.078;2024-02-26T01:32:37;0.45;63.02
70214;DHT22;60138;55.808;37.078;2024-02-26T01:35:03;0.45;63.02
70214;DHT22;60138;55.808;37.078;2024-02-26T01:37:29;0.44;63.39
70214;DHT22;60138;55.808;37.078;2024-02-26T01:39:55;0.39;63.74
70214;DHT22;60138;55.808;37.078;2024-02-26T01:42:21;0.38;62.74
70214;DHT22;60138;55.808;37.078;2024-02-26T01:44:46;0.38;63.40
70214;DHT22;60138;55.808;37.078;2024-02-26T01:47:12;0.36;62.98
70214;DHT22;60138;55.808;37.078;2024-02-26T01:49:39;0.32;62.41
70214;DHT22;60138;55.808;37.078;2024-02-26T01:52:06;0.31;63.91
70214;DHT22;60138;55.808;37.078;2024-02-26T01:54:37;0.31;62.76
70214;DHT22;60138;55.808;37.078;2024-02-26T01:57:04;0.33;64.24
70214;DHT22;60138;55.808;37.078;2024-02-26T01:59:30;0.34;64.50
70214;DHT22;60138;55.808;37.078;2024-02-26T02:01:59;0.34;64.40
70214;DHT22;60138;55.808;37.078;2024-02-26T02:04:26;0.35;62.42
70214;DHT22;60138;55.808;37.078;2024-02-26T02:06:52;0.35;63.04
70214;DHT22;60138;55.808;37.078;2024-02-26T02:09:18;0.37;63.73
70214;DHT22;60138;55.808;37.078;2024-02-26T02:11:44;0.37;63.26
70214;DHT22;60138;55.808;37.078;2024-02-26T02:14:09;0.38;61.58
70214;DHT22;60138;55.808;37.078;2024-02-26T02:16:35;0.42;63.46
70214;DHT22;60138;55.808;37.078;2024-02-26T02:19:01;0.39;62.40
70214;DHT22;60138;55.808;37.078;2024-02-26T02:21:27;0.37;63.95
70214;DHT22;60138;55.808;37.078;2024-02-26T02:23:52;0.37;63.41
70214;DHT22;60138;55.808;37.078;2024-02-26T02:26:18;0.36;63.32
70214;DHT22;60138;55.808;37.078;2024-02-26T02:28:45;0.34;62.99
70214;DHT22;60138;55.808;37.078;2024-02-26T02:31:11;0.35;62.82
70214;DHT22;60138;55.808;37.078;2024-02-26T02:33:37;0.35;62.20
70214;DHT22;60138;55.808;37.078;2024-02-26T02:36:03;0.35;61.95
70214;DHT22;60138;55.808;37.078;2024-02-26T02:38:29;0.38;63.59
70214;DHT22;60138;55.808;37.078;2024-02-26T02:40:55;0.38;63.04
70214;DHT22;60138;55.808;37.078;2024-02-26T02:43:20;0.39;62.77
70214;DHT22;60138;55.808;37.078;2024-02-26T02:45:46;0.39;62.57
70214;DHT22;60138;55.808;37.078;2024-02-26T02:48:11;0.38;63.08
70214;DHT22;60138;55.808;37.078;2024-02-26T02:50:38;0.40;62.91
70214;DHT22;60138;55.808;37.078;2024-02-26T02:53:03;0.43;62.86
70214;DHT22;60138;55.808;37.078;2024-02-26T02:55:29;0.43;62.39
70214;DHT22;60138;55.808;37.078;2024-02-26T02:57:55;0.39;62.15
70214;DHT22;60138;55.808;37.078;2024-02-26T03:00:20;0.43;62.25
70214;DHT22;60138;55.808;37.078;2024-02-26T03:02:46;0.40;61.26
70214;DHT22;60138;55.808;37.078;2024-02-26T03:05:12;0.42;62.44
70214;DHT22;60138;55.808;37.078;2024-02-26T03:07:38;0.42;63.03
70214;DHT22;60138;55.808;37.078;2024-02-26T03:10:03;0.39;62.97
70214;DHT22;60138;55.808;37.078;2024-02-26T03:12:30;0.42;62.72
70214;DHT22;60138;55.808;37.078;2024-02-26T03:14:55;0.42;64.14
70214;DHT22;60138;55.808;37.078;2024-02-26T03:17:21;0.40;62.79
70214;DHT22;60138;55.808;37.078;2024-02-26T03:19:47;0.38;62.57
70214;DHT22;60138;55.808;37.078;2024-02-26T03:22:13;0.37;62.21
70214;DHT22;60138;55.808;37.078;2024-02-26T03:24:39;0.37;63.08
70214;DHT22;60138;55.808;37.078;2024-02-26T03:27:04;0.37;60.93
70214;DHT22;60138;55.808;37.078;2024-02-26T03:29:30;0.36;62.68
70214;DHT22;60138;55.808;37.078;2024-02-26T03:31:56;0.36;62.89
70214;DHT22;60138;55.808;37.078;2024-02-26T03:34:21;0.35;62.18
70214;DHT22;60138;55.808;37.078;2024-02-26T03:36:47;0.33;61.32
70214;DHT22;60138;55.808;37.078;2024-02-26T03:39:12;0.30;61.92
70214;DHT22;60138;55.808;37.078;2024-02-26T03:41:38;0.31;61.07
70214;DHT22;60138;55.808;37.078;2024-02-26T03:44:04;0.29;61.75
70214;DHT22;60138;55.808;37.078;2024-02-26T03:46:30;0.29;61.81
70214;DHT22;60138;55.808;37.078;2024-02-26T03:48:55;0.24;62.45
70214;DHT22;60138;55.808;37.078;2024-02-26T03:51:21;0.25;63.76
70214;DHT22;60138;55.808;37.078;2024-02-26T03:53:46;0.22;60.48
70214;DHT22;60138;55.808;37.078;2024-02-26T03:56:12;0.24;62.77
70214;DHT22;60138;55.808;37.078;2024-02-26T03:58:38;0.22;61.43
70214;DHT22;60138;55.808;37.078;2024-02-26T04:01:03;0.22;62.44
70214;DHT22;60138;55.808;37.078;2024-02-26T04:03:29;0.25;62.38
70214;DHT22;60138;55.808;37.078;2024-02-26T04:05:55;0.25;62.21
70214;DHT22;60138;55.808;37.078;2024-02-26T04:08:20;0.29;62.54
70214;DHT22;60138;55.808;37.078;2024-02-26T04:10:46;0.28;61.29
70214;DHT22;60138;55.808;37.078;2024-02-26T04:13:12;0.28;62.15
70214;DHT22;60138;55.808;37.078;2024-02-26T04:15:37;0.24;60.41
70214;DHT22;60138;55.808;37.078;2024-02-26T04:18:03;0.24;61.69
70214;DHT22;60138;55.808;37.078;2024-02-26T04:20:29;0.25;61.83
70214;DHT22;60138;55.808;37.078;2024-02-26T04:22:54;0.25;61.18
70214;DHT22;60138;55.808;37.078;2024-02-26T04:25:20;0.24;63.21
70214;DHT22;60138;55.808;37.078;2024-02-26T04:27:45;0.23;60.70
70214;DHT22;60138;55.808;37.078;2024-02-26T04:30:11;0.24;61.50
70214;DHT22;60138;55.808;37.078;2024-02-26T04:32:37;0.27;62.81
70214;DHT22;60138;55.808;37.078;2024-02-26T04:35:03;0.28;62.47
70214;DHT22;60138;55.808;37.078;2024-02-26T04:37:29;0.30;62.08
70214;DHT22;60138;55.808;37.078;2024-02-26T04:39:54;0.29;62.63
70214;DHT22;60138;55.808;37.078;2024-02-26T04:42:20;0.30;61.46
70214;DHT22;60138;55.808;37.078;2024-02-26T04:44:46;0.28;61.49
70214;DHT22;60138;55.808;37.078;2024-02-26T04:47:11;0.27;60.62
70214;DHT22;60138;55.808;37.078;2024-02-26T04:49:37;0.29;61.74
70214;DHT22;60138;55.808;37.078;2024-02-26T04:52:03;0.30;62.06
70214;DHT22;60138;55.808;37.078;2024-02-26T04:54:28;0.31;61.47
70214;DHT22;60138;55.808;37.078;2024-02-26T04:56:54;0.32;62.31
70214;DHT22;60138;55.808;37.078;2024-02-26T04:59:20;0.32;62.97
70214;DHT22;60138;55.808;37.078;2024-02-26T05:01:45;0.30;61.99
70214;DHT22;60138;55.808;37.078;2024-02-26T05:04:11;0.28;62.83
70214;DHT22;60138;55.808;37.078;2024-02-26T05:06:37;0.32;62.51
70214;DHT22;60138;55.808;37.078;2024-02-26T05:09:03;0.32;63.02
70214;DHT22;60138;55.808;37.078;2024-02-26T05:11:28;0.30;61.66
70214;DHT22;60138;55.808;37.078;2024-02-26T05:13:54;0.33;62.88
70214;DHT22;60138;55.808;37.078;2024-02-26T05:16:20;0.32;61.00
70214;DHT22;60138;55.808;37.078;2024-02-26T05:18:45;0.33;61.98
70214;DHT22;60138;55.808;37.078;2024-02-26T05:21:11;0.35;61.98
70214;DHT22;60138;55.808;37.078;2024-02-26T05:23:37;0.36;61.70
70214;DHT22;60138;55.808;37.078;2024-02-26T05:26:02;0.35;61.38
70214;DHT22;60138;55.808;37.078;2024-02-26T05:28:28;0.38;62.01
70214;DHT22;60138;55.808;37.078;2024-02-26T05:30:53;0.40;61.41
70214;DHT22;60138;55.808;37.078;2024-02-26T05:33:19;0.42;61.68
70214;DHT22;60138;55.808;37.078;2024-02-26T05:35:45;0.44;60.80
70214;DHT22;60138;55.808;37.078;2024-02-26T05:38:11;0.46;61.09
70214;DHT22;60138;55.808;37.078;2024-02-26T05:40:36;0.49;61.41
70214;DHT22;60138;55.808;37.078;2024-02-26T05:43:02;0.53;61.84
70214;DHT22;60138;55.808;37.078;2024-02-26T05:45:27;0.57;62.31
70214;DHT22;60138;55.808;37.078;2024-02-26T05:47:53;0.58;61.02
70214;DHT22;60138;55.808;37.078;2024-02-26T05:50:19;0.60;61.41
70214;DHT22;60138;55.808;37.078;2024-02-26T05:52:44;0.60;61.87
70214;DHT22;60138;55.808;37.078;2024-02-26T05:55:10;0.62;62.23
70214;DHT22;60138;55.808;37.078;2024-02-26T05:57:36;0.62;61.82
70214;DHT22;60138;55.808;37.078;2024-02-26T06:00:02;0.62;60.77
70214;DHT22;60138;55.808;37.078;2024-02-26T06:02:40;0.63;61.54
70214;DHT22;60138;55.808;37.078;2024-02-26T06:05:06;0.66;61.60
70214;DHT22;60138;55.808;37.078;2024-02-26T06:07:31;0.68;60.07
70214;DHT22;60138;55.808;37.078;2024-02-26T06:09:57;0.67;61.25
70214;DHT22;60138;55.808;37.078;2024-02-26T06:12:23;0.68;61.79
70214;DHT22;60138;55.808;37.078;2024-02-26T06:14:49;0.71;61.33
70214;DHT22;60138;55.808;37.078;2024-02-26T06:17:14;0.75;61.93
70214;DHT22;60138;55.808;37.078;2024-02-26T06:19:40;0.76;60.73
70214;DHT22;60138;55.808;37.078;2024-02-26T06:22:05;0.77;61.59
70214;DHT22;60138;55.808;37.078;2024-02-26T06:24:31;0.81;61.38
70214;DHT22;60138;55.808;37.078;2024-02-26T06:26:57;0.81;61.52
70214;DHT22;60138;55.808;37.078;2024-02-26T06:29:22;0.83;61.55
70214;DHT22;60138;55.808;37.078;2024-02-26T06:31:48;0.86;61.03
70214;DHT22;60138;55.808;37.078;2024-02-26T06:34:14;0.89;61.23
70214;DHT22;60138;55.808;37.078;2024-02-26T06:36:39;0.88;60.87
70214;DHT22;60138;55.808;37.078;2024-02-26T06:39:05;0.92;61.34
70214;DHT22;60138;55.808;37.078;2024-02-26T06:41:30;0.96;61.14
70214;DHT22;60138;55.808;37.078;2024-02-26T06:43:56;0.98;61.98
70214;DHT22;60138;55.808;37.078;2024-02-26T06:46:23;1.01;61.97
70214;DHT22;60138;55.808;37.078;2024-02-26T06:48:49;1.06;62.13
70214;DHT22;60138;55.808;37.078;2024-02-26T06:51:14;1.14;61.96
70214;DHT22;60138;55.808;37.078;2024-02-26T06:53:40;1.17;62.12
70214;DHT22;60138;55.808;37.078;2024-02-26T06:56:06;1.17;60.73
70214;DHT22;60138;55.808;37.078;2024-02-26T06:58:32;1.17;60.94
70214;DHT22;60138;55.808;37.078;2024-02-26T07:00:57;1.17;62.67
70214;DHT22;60138;55.808;37.078;2024-02-26T07:03:23;1.16;60.66
70214;DHT22;60138;55.808;37.078;2024-02-26T07:05:49;1.19;60.90
70214;DHT22;60138;55.808;37.078;2024-02-26T07:08:14;1.32;61.66
70214;DHT22;60138;55.808;37.078;2024-02-26T07:10:40;1.45;61.93
70214;DHT22;60138;55.808;37.078;2024-02-26T07:13:06;1.48;60.28
70214;DHT22;60138;55.808;37.078;2024-02-26T07:15:31;1.52;60.46
70214;DHT22;60138;55.808;37.078;2024-02-26T07:17:57;1.60;61.22
70214;DHT22;60138;55.808;37.078;2024-02-26T07:20:22;1.76;61.63
70214;DHT22;60138;55.808;37.078;2024-02-26T07:22:48;1.79;60.32
70214;DHT22;60138;55.808;37.078;2024-02-26T07:25:14;1.82;60.09
70214;DHT22;60138;55.808;37.078;2024-02-26T07:27:39;1.87;59.41
70214;DHT22;60138;55.808;37.078;2024-02-26T07:30:06;1.84;58.26
70214;DHT22;60138;55.808;37.078;2024-02-26T07:32:32;1.84;61.27
70214;DHT22;60138;55.808;37.078;2024-02-26T07:34:57;1.81;60.91
70214;DHT22;60138;55.808;37.078;2024-02-26T07:37:23;1.80;58.64
70214;DHT22;60138;55.808;37.078;2024-02-26T07:39:49;1.86;61.46
70214;DHT22;60138;55.808;37.078;2024-02-26T07:42:14;1.86;61.23
70214;DHT22;60138;55.808;37.078;2024-02-26T07:44:40;1.83;58.19
70214;DHT22;60138;55.808;37.078;2024-02-26T07:47:05;1.80;60.88
70214;DHT22;60138;55.808;37.078;2024-02-26T07:49:31;1.77;59.72
70214;DHT22;60138;55.808;37.078;2024-02-26T07:51:57;1.81;59.97
70214;DHT22;60138;55.808;37.078;2024-02-26T07:54:22;1.85;59.39
70214;DHT22;60138;55.808;37.078;2024-02-26T07:56:48;1.88;60.57
70214;DHT22;60138;55.808;37.078;2024-02-26T07:59:14;1.87;58.78
70214;DHT22;60138;55.808;37.078;2024-02-26T08:01:41;1.93;60.33
70214;DHT22;60138;55.808;37.078;2024-02-26T08:04:07;1.95;60.08
70214;DHT22;60138;55.808;37.078;2024-02-26T08:06:33;2.00;58.70
70214;DHT22;60138;55.808;37.078;2024-02-26T08:08:58;2.08;59.29
70214;DHT22;60138;55.808;37.078;2024-02-26T08:11:24;2.13;57.30
70214;DHT22;60138;55.808;37.078;2024-02-26T08:13:50;2.14;59.41
70214;DHT22;60138;55.808;37.078;2024-02-26T08:16:15;2.21;59.32
70214;DHT22;60138;55.808;37.078;2024-02-26T08:18:41;2.30;60.18
70214;DHT22;60138;55.808;37.078;2024-02-26T08:21:07;2.36;59.35
70214;DHT22;60138;55.808;37.078;2024-02-26T08:23:33;2.29;58.82
70214;DHT22;60138;55.808;37.078;2024-02-26T08:25:58;2.30;59.25
70214;DHT22;60138;55.808;37.078;2024-02-26T08:28:24;2.31;58.05
70214;DHT22;60138;55.808;37.078;2024-02-26T08:30:50;2.30;59.09
70214;DHT22;60138;55.808;37.078;2024-02-26T08:33:15;2.24;59.60
70214;DHT22;60138;55.808;37.078;2024-02-26T08:35:41;2.24;60.21
70214;DHT22;60138;55.808;37.078;2024-02-26T08:38:07;2.23;59.80
70214;DHT22;60138;55.808;37.078;2024-02-26T08:40:32;2.26;59.02
70214;DHT22;60138;55.808;37.078;2024-02-26T08:42:58;2.31;59.50
70214;DHT22;60138;55.808;37.078;2024-02-26T08:45:24;2.37;59.55
70214;DHT22;60138;55.808;37.078;2024-02-26T08:47:49;2.45;60.60
70214;DHT22;60138;55.808;37.078;2024-02-26T08:50:15;2.47;58.95
70214;DHT22;60138;55.808;37.078;2024-02-26T08:52:40;2.50;60.74
70214;DHT22;60138;55.808;37.078;2024-02-26T08:55:06;2.53;61.41
70214;DHT22;60138;55.808;37.078;2024-02-26T08:57:32;2.58;60.23
70214;DHT22;60138;55.808;37.078;2024-02-26T08:59:58;2.62;58.31
70214;DHT22;60138;55.808;37.078;2024-02-26T09:02:24;2.62;58.64
70214;DHT22;60138;55.808;37.078;2024-02-26T09:04:49;2.67;59.91
70214;DHT22;60138;55.808;37.078;2024-02-26T09:07:17;2.64;57.42
70214;DHT22;60138;55.808;37.078;2024-02-26T09:09:43;2.62;58.88
70214;DHT22;60138;55.808;37.078;2024-02-26T09:12:09;2.69;57.97
70214;DHT22;60138;55.808;37.078;2024-02-26T09:14:34;2.78;57.48
70214;DHT22;60138;55.808;37.078;2024-02-26T09:17:00;2.87;59.06
70214;DHT22;60138;55.808;37.078;2024-02-26T09:19:26;2.93;58.67
70214;DHT22;60138;55.808;37.078;2024-02-26T09:21:52;3.02;58.82
70214;DHT22;60138;55.808;37.078;2024-02-26T09:24:17;3.06;58.74
70214;DHT22;60138;55.808;37.078;2024-02-26T09:26:43;3.13;57.85
70214;DHT22;60138;55.808;37.078;2024-02-26T09:29:08;3.23;58.98
70214;DHT22;60138;55.808;37.078;2024-02-26T09:31:34;3.30;59.17
70214;DHT22;60138;55.808;37.078;2024-02-26T09:34:00;3.39;59.51
70214;DHT22;60138;55.808;37.078;2024-02-26T09:36:25;3.42;56.88
70214;DHT22;60138;55.808;37.078;2024-02-26T09:38:51;3.47;57.87
70214;DHT22;60138;55.808;37.078;2024-02-26T09:41:17;3.49;55.04
70214;DHT22;60138;55.808;37.078;2024-02-26T09:43:46;3.59;58.32
70214;DHT22;60138;55.808;37.078;2024-02-26T09:46:14;3.67;59.02
70214;DHT22;60138;55.808;37.078;2024-02-26T09:48:40;3.64;56.74
70214;DHT22;60138;55.808;37.078;2024-02-26T09:51:10;3.63;56.14
70214;DHT22;60138;55.808;37.078;2024-02-26T09:53:36;3.60;56.61
70214;DHT22;60138;55.808;37.078;2024-02-26T09:56:02;3.61;56.67
70214;DHT22;60138;55.808;37.078;2024-02-26T09:58:28;3.70;57.06
70214;DHT22;60138;55.808;37.078;2024-02-26T10:01:00;3.72;56.55
70214;DHT22;60138;55.808;37.078;2024-02-26T10:03:41;3.69;57.24
70214;DHT22;60138;55.808;37.078;2024-02-26T10:06:08;3.74;58.42
70214;DHT22;60138;55.808;37.078;2024-02-26T10:08:35;3.83;58.04
70214;DHT22;60138;55.808;37.078;2024-02-26T10:11:01;3.90;57.18
70214;DHT22;60138;55.808;37.078;2024-02-26T10:13:27;3.92;56.43
70214;DHT22;60138;55.808;37.078;2024-02-26T10:15:52;3.95;56.21
70214;DHT22;60138;55.808;37.078;2024-02-26T10:18:18;3.95;56.55
70214;DHT22;60138;55.808;37.078;2024-02-26T10:20:59;3.94;56.61
70214;DHT22;60138;55.808;37.078;2024-02-26T10:23:26;3.95;57.37
70214;DHT22;60138;55.808;37.078;2024-02-26T10:25:55;3.98;57.04
70214;DHT22;60138;55.808;37.078;2024-02-26T10:28:21;4.04;54.71
70214;DHT22;60138;55.808;37.078;2024-02-26T10:30:46;4.06;57.93
70214;DHT22;60138;55.808;37.078;2024-02-26T10:33:12;4.05;56.72
70214;DHT22;60138;55.808;37.078;2024-02-26T10:35:38;4.15;57.48
70214;DHT22;60138;55.808;37.078;2024-02-26T10:38:04;4.19;57.46
70214;DHT22;60138;55.808;37.078;2024-02-26T10:40:29;4.27;56.04
70214;DHT22;60138;55.808;37.078;2024-02-26T10:42:55;4.29;56.72
70214;DHT22;60138;55.808;37.078;2024-02-26T10:45:20;4.35;57.35
70214;DHT22;60138;55.808;37.078;2024-02-26T10:47:46;4.44;56.26
70214;DHT22;60138;55.808;37.078;2024-02-26T10:50:13;4.53;57.72
70214;DHT22;60138;55.808;37.078;2024-02-26T10:52:40;4.59;58.60
70214;DHT22;60138;55.808;37.078;2024-02-26T10:55:07;4.64;57.19
70214;DHT22;60138;55.808;37.078;2024-02-26T10:57:38;4.71;54.65
70214;DHT22;60138;55.808;37.078;2024-02-26T11:00:06;4.74;55.65
70214;DHT22;60138;55.808;37.078;2024-02-26T11:02:36;4.79;56.33
70214;DHT22;60138;55.808;37.078;2024-02-26T11:05:06;4.90;57.24
70214;DHT22;60138;55.808;37.078;2024-02-26T11:07:34;4.97;55.27
70214;DHT22;60138;55.808;37.078;2024-02-26T11:10:00;5.00;54.13
70214;DHT22;60138;55.808;37.078;2024-02-26T11:12:28;5.01;55.08
70214;DHT22;60138;55.808;37.078;2024-02-26T11:14:55;4.97;53.14
70214;DHT22;60138;55.808;37.078;2024-02-26T11:17:22;4.91;54.53
70214;DHT22;60138;55.808;37.078;2024-02-26T11:19:49;4.95;53.00
70214;DHT22;60138;55.808;37.078;2024-02-26T11:22:15;4.93;54.92
70214;DHT22;60138;55.808;37.078;2024-02-26T11:24:41;4.88;52.85
70214;DHT22;60138;55.808;37.078;2024-02-26T11:27:09;4.79;55.73
70214;DHT22;60138;55.808;37.078;2024-02-26T11:29:54;4.74;55.45
70214;DHT22;60138;55.808;37.078;2024-02-26T11:32:21;4.63;54.39
70214;DHT22;60138;55.808;37.078;2024-02-26T11:34:46;4.45;54.82
70214;DHT22;60138;55.808;37.078;2024-02-26T11:37:14;4.34;53.81
70214;DHT22;60138;55.808;37.078;2024-02-26T11:39:41;4.26;55.60
70214;DHT22;60138;55.808;37.078;2024-02-26T11:42:08;4.20;56.56
70214;DHT22;60138;55.808;37.078;2024-02-26T11:44:34;4.17;54.71
70214;DHT22;60138;55.808;37.078;2024-02-26T11:47:12;4.14;56.02
70214;DHT22;60138;55.808;37.078;2024-02-26T11:49:38;4.08;56.89
70214;DHT22;60138;55.808;37.078;2024-02-26T11:52:08;4.02;56.05
70214;DHT22;60138;55.808;37.078;2024-02-26T12:00:14;3.83;59.01
70214;DHT22;60138;55.808;37.078;2024-02-26T12:02:44;3.71;58.00
70214;DHT22;60138;55.808;37.078;2024-02-26T12:05:18;3.65;55.93
70214;DHT22;60138;55.808;37.078;2024-02-26T12:07:48;3.62;54.89
70214;DHT22;60138;55.808;37.078;2024-02-26T12:10:33;3.63;57.04
70214;DHT22;60138;55.808;37.078;2024-02-26T12:13:05;3.63;57.44
70214;DHT22;60138;55.808;37.078;2024-02-26T12:15:32;3.60;57.32
70214;DHT22;60138;55.808;37.078;2024-02-26T12:18:00;3.63;57.85
70214;DHT22;60138;55.808;37.078;2024-02-26T12:20:26;3.62;57.58
70214;DHT22;60138;55.808;37.078;2024-02-26T12:22:52;3.61;57.20
70214;DHT22;60138;55.808;37.078;2024-02-26T12:25:22;3.62;58.42
70214;DHT22;60138;55.808;37.078;2024-02-26T12:27:48;3.64;57.97
70214;DHT22;60138;55.808;37.078;2024-02-26T12:30:14;3.63;59.02
70214;DHT22;60138;55.808;37.078;2024-02-26T12:32:39;3.58;55.58
70214;DHT22;60138;55.808;37.078;2024-02-26T12:35:06;3.60;57.55
70214;DHT22;60138;55.808;37.078;2024-02-26T12:37:32;3.67;58.19
70214;DHT22;60138;55.808;37.078;2024-02-26T12:39:58;3.70;57.80
70214;DHT22;60138;55.808;37.078;2024-02-26T12:42:23;3.74;58.13
70214;DHT22;60138;55.808;37.078;2024-02-26T12:44:50;3.79;58.81
70214;DHT22;60138;55.808;37.078;2024-02-26T12:47:16;3.83;57.80
70214;DHT22;60138;55.808;37.078;2024-02-26T12:49:42;3.89;57.63
70214;DHT22;60138;55.808;37.078;2024-02-26T12:52:08;3.95;57.35
70214;DHT22;60138;55.808;37.078;2024-02-26T12:54:34;4.02;57.45
70214;DHT22;60138;55.808;37.078;2024-02-26T12:57:00;4.02;56.47
70214;DHT22;60138;55.808;37.078;2024-02-26T12:59:27;3.99;55.65
70214;DHT22;60138;55.808;37.078;2024-02-26T13:01:53;3.97;57.70
70214;DHT22;60138;55.808;37.078;2024-02-26T13:04:19;3.95;55.59
70214;DHT22;60138;55.808;37.078;2024-02-26T13:06:45;3.92;56.59
70214;DHT22;60138;55.808;37.078;2024-02-26T13:09:14;3.91;54.77
70214;DHT22;60138;55.808;37.078;2024-02-26T13:11:40;3.88;55.10
70214;DHT22;60138;55.808;37.078;2024-02-26T13:14:05;3.85;54.98
70214;DHT22;60138;55.808;37.078;2024-02-26T13:16:31;3.84;54.99
70214;DHT22;60138;55.808;37.078;2024-02-26T13:18:57;3.83;54.53
70214;DHT22;60138;55.808;37.078;2024-02-26T13:21:22;3.87;56.37
70214;DHT22;60138;55.808;37.078;2024-02-26T13:23:51;3.85;56.48
70214;DHT22;60138;55.808;37.078;2024-02-26T13:26:17;3.83;56.39
70214;DHT22;60138;55.808;37.078;2024-02-26T13:28:47;3.92;57.41
70214;DHT22;60138;55.808;37.078;2024-02-26T13:31:12;4.02;55.10
70214;DHT22;60138;55.808;37.078;2024-02-26T13:33:38;4.06;55.09
70214;DHT22;60138;55.808;37.078;2024-02-26T13:36:04;4.09;56.04
70214;DHT22;60138;55.808;37.078;2024-02-26T13:38:30;4.09;56.19
70214;DHT22;60138;55.808;37.078;2024-02-26T13:40:55;3.94;56.46
70214;DHT22;60138;55.808;37.078;2024-02-26T13:43:21;3.73;56.21
70214;DHT22;60138;55.808;37.078;2024-02-26T13:45:47;3.57;55.43
70214;DHT22;60138;55.808;37.078;2024-02-26T13:48:13;3.53;56.10
70214;DHT22;60138;55.808;37.078;2024-02-26T13:50:40;3.52;55.70
70214;DHT22;60138;55.808;37.078;2024-02-26T13:53:06;3.53;55.87
70214;DHT22;60138;55.808;37.078;2024-02-26T13:55:32;3.52;55.87
70214;DHT22;60138;55.808;37.078;2024-02-26T13:57:59;3.54;54.91
70214;DHT22;60138;55.808;37.078;2024-02-26T14:00:26;3.49;56.34
70214;DHT22;60138;55.808;37.078;2024-02-26T14:02:52;3.50;55.79
70214;DHT22;60138;55.808;37.078;2024-02-26T14:05:18;3.50;56.90
70214;DHT22;60138;55.808;37.078;2024-02-26T14:07:43;3.47;57.39
70214;DHT22;60138;55.808;37.078;2024-02-26T14:10:11;3.44;57.47
70214;DHT22;60138;55.808;37.078;2024-02-26T14:12:38;3.31;56.21
70214;DHT22;60138;55.808;37.078;2024-02-26T14:15:06;3.14;58.38
70214;DHT22;60138;55.808;37.078;2024-02-26T14:17:32;2.96;57.30
70214;DHT22;60138;55.808;37.078;2024-02-26T14:19:57;2.76;55.78
70214;DHT22;60138;55.808;37.078;2024-02-26T14:22:23;2.59;56.45
70214;DHT22;60138;55.808;37.078;2024-02-26T14:24:49;2.45;57.52
70214;DHT22;60138;55.808;37.078;2024-02-26T14:27:14;2.32;57.24
70214;DHT22;60138;55.808;37.078;2024-02-26T14:29:43;2.22;57.02
70214;DHT22;60138;55.808;37.078;2024-02-26T14:32:09;2.16;57.16
70214;DHT22;60138;55.808;37.078;2024-02-26T14:34:35;2.11;57.66
70214;DHT22;60138;55.808;37.078;2024-02-26T14:37:01;2.02;57.72
70214;DHT22;60138;55.808;37.078;2024-02-26T14:39:27;1.97;58.48
70214;DHT22;60138;55.808;37.078;2024-02-26T14:41:53;1.90;58.09
70214;DHT22;60138;55.808;37.078;2024-02-26T14:44:19;1.79;58.25
70214;DHT22;60138;55.808;37.078;2024-02-26T14:46:44;1.68;57.44
70214;DHT22;60138;55.808;37.078;2024-02-26T14:49:10;1.54;58.05
70214;DHT22;60138;55.808;37.078;2024-02-26T14:51:35;1.45;58.22
70214;DHT22;60138;55.808;37.078;2024-02-26T14:54:01;1.33;57.62
70214;DHT22;60138;55.808;37.078;2024-02-26T14:56:27;1.23;58.60
70214;DHT22;60138;55.808;37.078;2024-02-26T14:58:53;1.12;58.19
70214;DHT22;60138;55.808;37.078;2024-02-26T15:01:23;1.04;58.47
70214;DHT22;60138;55.808;37.078;2024-02-26T15:03:49;0.95;58.37
70214;DHT22;60138;55.808;37.078;2024-02-26T15:06:15;0.87;57.91
70214;DHT22;60138;55.808;37.078;2024-02-26T15:08:40;0.78;58.49
70214;DHT22;60138;55.808;37.078;2024-02-26T15:11:06;0.69;58.67
70214;DHT22;60138;55.808;37.078;2024-02-26T15:13:32;0.62;58.03
70214;DHT22;60138;55.808;37.078;2024-02-26T15:15:57;0.54;57.99
70214;DHT22;60138;55.808;37.078;2024-02-26T15:18:23;0.45;57.86
70214;DHT22;60138;55.808;37.078;2024-02-26T15:20:48;0.40;58.55
70214;DHT22;60138;55.808;37.078;2024-02-26T15:23:14;0.32;57.67
70214;DHT22;60138;55.808;37.078;2024-02-26T15:25:40;0.27;58.96
70214;DHT22;60138;55.808;37.078;2024-02-26T15:28:06;0.19;57.88